Time;durP1;ratioP1;P1;durP2;ratioP2;P2;SDS_P1;SDS_P2;PMS_P1;PMS_P2;Temp;Humidity;BMP_temperature;BMP_pressure;BME280_temperature;BME280_humidity;BME280_pressure;Samples;Min_cycle;Max_cycle;Signal;HPM_P1;HPM_P2
2022/05/19 00:01:29;;;;;;;57.78;37.13;;;;;;;;;;5020168;28;20041;-79
2022/05/19 00:03:55;;;;;;;48.83;35.58;;;;;;;;;;5020800;28;20588;-84
2022/05/19 00:06:24;;;;;;;49.70;37.45;;;;;;;;;;5022071;28;20045;-81
2022/05/19 00:08:50;;;;;;;50.42;36.53;;;;;;;;;;5020247;28;20053;-84
2022/05/19 00:11:17;;;;;;;61.35;37.35;;;;;;;;;;5020938;28;20131;-84
2022/05/19 00:13:43;;;;;;;51.60;37.63;;;;;;;;;;5020533;28;20041;-82
2022/05/19 00:16:10;;;;;;;55.40;39.45;;;;;;;;;;5019024;28;20042;-84
2022/05/19 00:18:36;;;;;;;50.75;37.58;;;;;;;;;;5021007;28;20045;-86
2022/05/19 00:21:03;;;;;;;45.45;35.30;;;;;;;;;;5019045;28;20029;-79
2022/05/19 00:23:29;;;;;;;60.55;39.40;;;;;;;;;;5018769;28;20091;-77
2022/05/19 00:25:55;;;;;;;56.63;38.83;;;;;;;;;;5019967;28;20562;-76
2022/05/19 00:28:21;;;;;;;52.65;38.25;;;;;;;;;;5020835;28;20049;-85
2022/05/19 00:30:47;;;;;;;52.80;37.42;;;;;;;;;;5020333;28;20135;-84
2022/05/19 00:33:14;;;;;;;47.45;36.70;;;;;;;;;;5019113;28;20052;-87
2022/05/19 00:35:40;;;;;;;49.85;35.13;;;;;;;;;;5020486;28;20053;-88
2022/05/19 00:38:07;;;;;;;47.00;36.50;;;;;;;;;;5019007;28;20482;-89
2022/05/19 00:40:33;;;;;;;50.63;38.70;;;;;;;;;;5022394;28;21301;-83
2022/05/19 00:42:59;;;;;;;51.97;38.67;;;;;;;;;;5000339;28;20144;-86
2022/05/19 00:45:28;;;;;;;53.85;39.47;;;15.80;99.90;;;;;;5029597;28;20117;-84
2022/05/19 00:48:14;;;;;;;59.35;41.72;;;;;;;;;;5032370;28;20048;-83
2022/05/19 00:50:46;;;;;;;54.28;39.85;;;;;;;;;;5017249;28;20030;-76
2022/05/19 00:53:13;;;;;;;51.38;37.35;;;;;;;;;;5034503;28;20085;-85
2022/05/19 00:55:44;;;;;;;50.05;38.20;;;;;;;;;;5038404;28;20042;-78
2022/05/19 00:58:16;;;;;;;52.63;38.85;;;;;;;;;;5023250;28;20041;-76
2022/05/19 01:00:45;;;;;;;47.58;37.55;;;;;;;;;;5027857;28;20037;-76
2022/05/19 01:03:13;;;;;;;53.35;38.78;;;;;;;;;;5019782;28;21140;-77
2022/05/19 01:05:44;;;;;;;52.20;39.45;;;;;;;;;;5021853;28;20057;-78
2022/05/19 01:08:25;;;;;;;57.65;38.92;;;;;;;;;;5018661;28;20075;-81
2022/05/19 01:10:53;;;;;;;52.47;39.40;;;;;;;;;;5021454;28;20045;-76
2022/05/19 01:13:20;;;;;;;47.83;37.03;;;;;;;;;;5020032;28;20124;-81
2022/05/19 01:15:49;;;;;;;55.72;37.85;;;;;;;;;;5019774;28;20455;-82
2022/05/19 01:18:15;;;;;;;54.70;38.00;;;;;;;;;;5020700;28;20470;-80
2022/05/19 01:20:43;;;;;;;51.08;38.47;;;;;;;;;;5020006;28;20045;-77
2022/05/19 01:23:12;;;;;;;47.90;36.72;;;;;;;;;;5018433;28;20052;-84
2022/05/19 01:25:38;;;;;;;47.42;34.35;;;;;;;;;;5019761;28;20049;-75
2022/05/19 01:28:04;;;;;;;52.55;34.08;;;;;;;;;;5020629;28;20084;-77
2022/05/19 01:30:31;;;;;;;45.58;33.28;;;;;;;;;;5023255;28;20041;-74
2022/05/19 01:32:57;;;;;;;42.20;31.60;;;;;;;;;;5019830;28;20057;-81
2022/05/19 01:35:23;;;;;;;47.63;30.27;;;;;;;;;;5020377;28;20140;-78
2022/05/19 01:37:49;;;;;;;40.55;31.42;;;;;;;;;;5022953;28;20061;-82
2022/05/19 01:40:19;;;;;;;41.33;28.27;;;;;;;;;;5017527;28;20045;-77
2022/05/19 01:43:04;;;;;;;46.75;28.88;;;;;;;;;;4998077;28;20045;-77
2022/05/19 01:45:30;;;;;;;36.33;26.58;;;;;;;;;;5019176;28;20046;-76
2022/05/19 01:48:01;;;;;;;36.42;27.80;;;;;;;;;;5019688;28;20508;-87
2022/05/19 01:50:27;;;;;;;39.65;28.63;;;;;;;;;;5018159;28;20045;-76
2022/05/19 01:52:57;;;;;;;41.78;33.08;;;;;;;;;;5019903;28;20037;-76
2022/05/19 01:55:26;;;;;;;52.00;38.13;;;;;;;;;;5020486;28;20040;-75
2022/05/19 01:57:55;;;;;;;54.45;39.05;;;;;;;;;;5019676;28;20476;-76
2022/05/19 02:00:23;;;;;;;51.70;37.20;;;;;;;;;;5018372;28;20043;-76
2022/05/19 02:02:53;;;;;;;55.28;37.97;;;;;;;;;;5019963;28;20045;-77
2022/05/19 02:05:19;;;;;;;48.42;37.35;;;;;;;;;;5020208;28;20050;-83
2022/05/19 02:07:47;;;;;;;54.60;40.72;;;;;;;;;;5018389;28;20099;-78
2022/05/19 02:10:19;;;;;;;67.05;43.65;;;;;;;;;;5020258;28;20140;-78
2022/05/19 02:12:47;;;;;;;59.63;45.72;;;;;;;;;;5022565;28;20068;-80
2022/05/19 02:15:15;;;;;;;68.75;49.33;;;;;;;;;;5023602;28;20717;-79
2022/05/19 02:17:42;;;;;;;67.25;50.22;;;;;;;;;;5021737;28;20049;-78
2022/05/19 02:20:10;;;;;;;63.78;50.88;;;;;;;;;;5025639;28;20093;-79
2022/05/19 02:22:38;;;;;;;71.35;57.55;;;;;;;;;;5022966;28;20042;-76
2022/05/19 02:25:11;;;;;;;76.75;57.40;;;;;;;;;;5024145;28;20064;-77
2022/05/19 02:27:48;;;;;;;82.20;59.92;;;;;;;;;;5024292;28;20485;-75
2022/05/19 02:30:18;;;;;;;78.80;61.20;;;;;;;;;;5004859;28;20069;-75
2022/05/19 02:32:45;;;;;;;83.38;63.60;;;;;;;;;;5023362;28;20052;-76
2022/05/19 02:35:12;;;;;;;81.20;61.63;;;;;;;;;;5023319;28;20046;-87
2022/05/19 02:37:38;;;;;;;83.45;64.13;;;;;;;;;;5024542;28;20217;-76
2022/05/19 02:40:04;;;;;;;77.20;60.88;;;;;;;;;;5023311;28;20041;-79
2022/05/19 02:42:30;;;;;;;85.53;63.13;;;;;;;;;;5002437;28;20048;-83
2022/05/19 02:44:56;;;;;;;77.88;59.95;;;;;;;;;;5002107;28;20053;-88
2022/05/19 02:47:23;;;;;;;84.40;61.00;;;;;;;;;;5023728;28;20049;-87
2022/05/19 02:49:49;;;;;;;77.65;57.25;;;;;;;;;;5021915;28;20053;-75
2022/05/19 02:52:15;;;;;;;82.28;59.50;;;;;;;;;;5022148;28;20034;-88
2022/05/19 02:54:41;;;;;;;78.53;59.67;;;;;;;;;;5023701;28;20037;-76
2022/05/19 02:57:07;;;;;;;79.35;60.53;;;;;;;;;;5020695;28;20128;-80
2022/05/19 02:59:33;;;;;;;78.70;60.20;;;;;;;;;;5020748;28;20045;-85
2022/05/19 03:01:59;;;;;;;80.93;61.05;;;;;;;;;;5019386;28;20054;-82
2022/05/19 03:04:25;;;;;;;82.72;62.95;;;;;;;;;;5021439;28;20052;-86
2022/05/19 03:06:52;;;;;;;90.10;67.78;;;;;;;;;;5021317;28;20087;-80
2022/05/19 03:09:18;;;;;;;96.60;68.80;;;;;;;;;;5022450;28;20077;-85
2022/05/19 03:11:44;;;;;;;100.93;71.15;;;;;;;;;;5022147;28;20048;-86
2022/05/19 03:14:10;;;;;;;95.25;71.60;;;;;;;;;;5021732;28;20049;-87
2022/05/19 03:16:42;;;;;;;100.43;73.25;;;;;;;;;;5033189;28;20084;-84
2022/05/19 03:19:12;;;;;;;103.60;73.97;;;;;;;;;;5023661;28;20041;-80
2022/05/19 03:21:38;;;;;;;108.78;74.50;;;;;;;;;;5020045;28;20139;-85
2022/05/19 03:24:05;;;;;;;99.80;74.07;;;;;;;;;;5022252;28;20045;-85
2022/05/19 03:26:31;;;;;;;108.25;78.82;;;;;;;;;;5019122;28;20046;-86
2022/05/19 03:28:57;;;;;;;114.47;79.00;;;;;;;;;;5022609;28;20049;-86
2022/05/19 03:31:23;;;;;;;119.32;84.35;;;;;;;;;;5021190;28;20065;-89
2022/05/19 03:33:49;;;;;;;120.40;86.97;;;;;;;;;;5024214;28;20049;-84
2022/05/19 03:36:16;;;;;;;112.45;80.93;;;;;;;;;;5022008;28;20041;-87
2022/05/19 03:38:42;;;;;;;112.95;79.63;;;;;;;;;;5032464;28;20048;-84
2022/05/19 03:41:09;;;;;;;108.13;79.97;;;;;;;;;;5029261;28;20472;-80
2022/05/19 03:43:35;;;;;;;101.25;74.47;;;;;;;;;;5025892;28;20620;-88
2022/05/19 03:46:01;;;;;;;98.05;72.10;;;;;;;;;;5031000;28;20055;-87
2022/05/19 03:48:31;;;;;;;107.20;75.55;;;;;;;;;;5026500;28;22236;-80
2022/05/19 03:50:57;;;;;;;105.40;76.35;;;;;;;;;;5030039;28;20371;-81
2022/05/19 03:53:24;;;;;;;108.07;78.57;;;;;;;;;;5030023;28;20034;-79
2022/05/19 03:55:50;;;;;;;112.85;80.30;;;;;;;;;;5045286;28;20063;-85
2022/05/19 03:58:16;;;;;;;105.65;76.35;;;;;;;;;;5041022;28;20041;-82
2022/05/19 04:00:42;;;;;;;97.07;71.30;;;;;;;;;;5042411;28;20041;-81
2022/05/19 04:03:08;;;;;;;105.95;72.55;;;;;;;;;;5028687;28;20045;-87
2022/05/19 04:05:34;;;;;;;103.05;72.63;;;;;;;;;;5024142;28;20052;-87
2022/05/19 04:08:00;;;;;;;101.75;73.63;;;;;;;;;;5023549;28;20052;-83
2022/05/19 04:10:26;;;;;;;100.68;71.72;;;;;;;;;;5020126;28;20047;-76
2022/05/19 04:12:52;;;;;;;94.28;69.65;;;;;;;;;;5021219;28;20088;-79
2022/05/19 04:15:19;;;;;;;95.35;69.20;;;;;;;;;;5022854;28;20053;-87
2022/05/19 04:17:45;;;;;;;99.32;71.43;;;;;;;;;;5023513;28;20078;-85
2022/05/19 04:20:11;;;;;;;104.88;76.25;;;;;;;;;;5022471;28;20223;-83
2022/05/19 04:22:38;;;;;;;105.25;74.47;;;;;;;;;;5021720;28;20486;-84
2022/05/19 04:25:05;;;;;;;103.88;74.68;;;;;;;;;;5023388;28;20135;-81
2022/05/19 04:27:31;;;;;;;103.22;75.95;;;;;;;;;;5019047;28;20037;-76
2022/05/19 04:29:57;;;;;;;98.63;74.25;;;;;;;;;;5019977;28;20050;-76
2022/05/19 04:32:23;;;;;;;101.85;73.78;;;;;;;;;;5019257;28;20042;-75
2022/05/19 04:34:49;;;;;;;87.75;69.30;;;;;;;;;;5021437;28;20041;-77
2022/05/19 04:37:16;;;;;;;98.63;71.88;;;;;;;;;;5021173;28;20040;-75
2022/05/19 04:39:42;;;;;;;93.70;69.22;;;;;;;;;;5016819;28;20045;-78
2022/05/19 04:42:09;;;;;;;89.22;66.97;;;;;;;;;;5021872;28;20057;-75
2022/05/19 04:44:35;;;;;;;95.18;66.28;;;;;;;;;;5018179;28;20481;-77
2022/05/19 04:47:01;;;;;;;83.82;58.35;;;;;;;;;;5017459;28;20072;-74
2022/05/19 04:49:27;;;;;;;68.57;52.00;;;;;;;;;;5018998;28;20119;-75
2022/05/19 04:51:53;;;;;;;78.07;53.08;;;;;;;;;;5019504;28;20151;-78
2022/05/19 04:54:19;;;;;;;63.97;49.58;;;;;;;;;;5019604;28;20061;-74
2022/05/19 04:56:45;;;;;;;62.22;47.50;;;;;;;;;;5021197;28;20038;-75
2022/05/19 04:59:14;;;;;;;67.22;47.15;;;;;;;;;;5019915;28;20041;-75
2022/05/19 05:01:48;;;;;;;66.60;46.40;;;;;;;;;;5017949;28;20061;-77
2022/05/19 05:04:15;;;;;;;55.67;43.85;;;;;;;;;;5019962;28;20084;-76
2022/05/19 05:06:42;;;;;;;61.38;43.85;;;;;;;;;;5022332;28;20077;-77
2022/05/19 05:09:08;;;;;;;61.80;42.00;;;;;;;;;;5015593;28;20749;-79
2022/05/19 05:11:34;;;;;;;59.70;40.90;;;;;;;;;;5022444;28;20037;-76
2022/05/19 05:14:00;;;;;;;57.88;38.85;;;;;;;;;;5026608;28;20497;-81
2022/05/19 05:16:26;;;;;;;48.70;38.45;;;;;;;;;;5025028;28;20042;-80
2022/05/19 05:18:52;;;;;;;56.20;39.22;;;;;;;;;;5032726;28;20525;-77
2022/05/19 05:21:18;;;;;;;45.72;35.67;;;;;;;;;;5036691;28;20037;-79
2022/05/19 05:23:44;;;;;;;49.50;37.60;;;;;;;;;;5029911;28;20042;-83
2022/05/19 05:26:11;;;;;;;47.85;38.17;;;;;;;;;;5034109;28;20100;-78
2022/05/19 05:28:37;;;;;;;48.97;39.25;;;;;;;;;;5005374;28;20452;-84
2022/05/19 05:31:04;;;;;;;45.05;37.28;;;;;;;;;;5003647;28;20489;-85
2022/05/19 05:33:31;;;;;;;48.15;38.10;;;;;;;;;;5024093;28;20079;-85
2022/05/19 05:35:57;;;;;;;46.95;37.33;;;;;;;;;;5009304;28;20045;-83
2022/05/19 05:38:23;;;;;;;53.80;39.15;;;;;;;;;;5007960;28;20111;-88
2022/05/19 05:40:50;;;;;;;49.30;38.47;;;;;;;;;;5020214;28;20128;-79
2022/05/19 05:43:17;;;;;;;50.75;38.15;;;;;;;;;;5026850;28;20037;-83
2022/05/19 05:45:44;;;;;;;51.33;40.97;;;;;;;;;;5005617;28;20098;-81
2022/05/19 05:48:10;;;;;;;44.58;36.08;;;;;;;;;;5002610;28;20087;-78
2022/05/19 05:50:36;;;;;;;43.13;36.38;;;;;;;;;;5020913;28;20525;-82
2022/05/19 05:53:03;;;;;;;54.88;40.92;;;;;;;;;;5005949;28;20510;-90
2022/05/19 05:55:30;;;;;;;49.30;40.88;;;;;;;;;;5025430;28;20033;-87
2022/05/19 05:57:56;;;;;;;55.08;41.00;;;;;;;;;;5004698;28;20049;-79
2022/05/19 06:00:22;;;;;;;51.92;40.72;;;;;;;;;;5007172;28;20045;-85
2022/05/19 06:02:49;;;;;;;51.45;40.17;;;;;;;;;;5007017;28;20468;-86
2022/05/19 06:05:15;;;;;;;49.67;41.00;;;;;;;;;;5022277;28;20045;-82
2022/05/19 06:07:41;;;;;;;56.75;42.83;;;;;;;;;;5010040;28;20053;-90
2022/05/19 06:10:08;;;;;;;50.10;40.35;;;;;;;;;;5012109;28;20061;-88
2022/05/19 06:12:34;;;;;;;52.13;41.25;;;;;;;;;;5018157;28;20045;-89
2022/05/19 06:15:00;;;;;;;51.97;41.22;;;;;;;;;;5042012;28;20034;-83
2022/05/19 06:17:26;;;;;;;50.60;36.58;;;;;;;;;;5012573;28;20452;-82
2022/05/19 06:19:52;;;;;;;50.25;39.67;;;;;;;;;;4996184;28;20656;-81
2022/05/19 06:22:22;;;;;;;44.08;36.50;;;;;;;;;;5030488;28;20553;-79
2022/05/19 06:24:48;;;;;;;43.85;35.72;;;;;;;;;;5039909;28;20568;-78
2022/05/19 06:27:14;;;;;;;40.28;32.17;;;;;;;;;;5002120;28;20084;-76
2022/05/19 06:29:40;;;;;;;44.60;35.75;;;;;;;;;;5012408;28;20140;-84
2022/05/19 06:32:07;;;;;;;42.67;34.58;;;;;;;;;;5029559;28;20524;-85
2022/05/19 06:34:33;;;;;;;40.22;32.38;;;;;;;;;;5037046;28;20050;-76
2022/05/19 06:36:59;;;;;;;39.53;31.63;;;;;;;;;;5044530;28;20046;-80
2022/05/19 06:39:25;;;;;;;35.33;30.60;;;;;;;;;;5041037;28;20115;-78
2022/05/19 06:42:00;;;;;;;39.05;30.88;;;;;;;;;;5039830;28;20041;-82
2022/05/19 06:44:29;;;;;;;40.05;30.40;;;;;;;;;;5015369;28;20397;-85
2022/05/19 06:46:55;;;;;;;33.83;28.02;;;;;;;;;;5031291;28;20053;-76
2022/05/19 06:49:21;;;;;;;34.45;27.17;;;;;;;;;;5015482;28;20044;-78
2022/05/19 06:51:47;;;;;;;33.78;25.95;;;;;;;;;;5047966;28;20052;-83
2022/05/19 06:54:13;;;;;;;31.15;24.58;;;;;;;;;;5033122;28;20045;-76
2022/05/19 06:56:39;;;;;;;34.72;25.17;;;;;;;;;;5029829;28;20091;-77
2022/05/19 06:59:07;;;;;;;29.05;23.58;;;;;;;;;;5016251;28;20052;-78
2022/05/19 07:01:33;;;;;;;30.98;23.42;;;;;;;;;;5041542;28;20067;-80
2022/05/19 07:03:59;;;;;;;27.60;22.55;;;;;;;;;;5037497;28;20045;-81
2022/05/19 07:06:26;;;;;;;30.23;22.90;;;;;;;;;;5020633;28;20065;-76
2022/05/19 07:08:52;;;;;;;27.23;23.52;;;;;;;;;;5029334;28;20063;-79
2022/05/19 07:11:25;;;;;;;28.88;24.73;;;;;;;;;;5004183;28;20571;-81
2022/05/19 07:14:02;;;;;;;32.90;25.13;;;;;;;;;;5031481;28;20041;-77
2022/05/19 07:16:28;;;;;;;36.45;26.23;;;;;;;;;;5025660;28;20685;-78
2022/05/19 07:21:43;;;;;;;34.95;27.50;;;;;;;;;;5025885;28;20179;-80
2022/05/19 07:24:16;;;;;;;39.97;27.05;;;;;;;;;;5025517;28;20040;-76
2022/05/19 07:26:43;;;;;;;34.65;27.10;;;;;;;;;;5006644;28;20056;-83
2022/05/19 07:29:09;;;;;;;37.60;26.40;;;;;;;;;;5008364;28;20050;-76
2022/05/19 07:31:36;;;;;;;39.15;25.85;;;;;;;;;;5033103;28;20064;-77
2022/05/19 07:34:02;;;;;;;41.22;27.75;;;;;;;;;;5030664;28;20064;-77
2022/05/19 07:36:28;;;;;;;49.70;29.52;;;;;;;;;;5026946;28;20580;-76
2022/05/19 07:38:56;;;;;;;42.67;28.63;;;;;;;;;;5032602;28;20395;-76
2022/05/19 07:41:22;;;;;;;43.53;28.55;;;;;;;;;;5028394;28;20041;-76
2022/05/19 07:43:48;;;;;;;35.97;24.95;;;;;;;;;;5010644;28;20045;-76
2022/05/19 07:46:14;;;;;;;41.55;26.42;;;;;;;;;;5026416;28;20038;-77
2022/05/19 07:48:41;;;;;;;33.42;24.08;;;;;;;;;;5029127;28;20033;-78
2022/05/19 07:51:07;;;;;;;37.47;25.75;;;;;;;;;;5026528;28;20049;-76
2022/05/19 07:53:33;;;;;;;30.45;21.90;;;;;;;;;;5028294;28;20049;-76
2022/05/19 07:56:00;;;;;;;40.03;24.27;;;;;;;;;;5024549;28;20042;-77
2022/05/19 07:58:26;;;;;;;31.42;21.92;;;;;;;;;;4997634;28;20717;-76
2022/05/19 08:00:52;;;;;;;27.80;19.73;;;;;;;;;;5028543;28;20045;-75
2022/05/19 08:03:19;;;;;;;32.00;19.63;;;;;;;;;;5027818;28;20045;-79
2022/05/19 08:05:45;;;;;;;30.17;20.30;;;;;;;;;;5026727;28;20402;-76
2022/05/19 08:08:11;;;;;;;30.38;19.55;;;;;;;;;;5024829;28;20105;-77
2022/05/19 08:10:37;;;;;;;33.42;19.15;;;;;;;;;;5027796;28;20076;-77
2022/05/19 08:15:48;;;;;;;30.73;17.63;;;;;;;;;;5024292;28;20034;-77
2022/05/19 08:18:17;;;;;;;28.17;15.25;;;18.70;99.90;;;;;;5023072;28;20041;-75
2022/05/19 08:20:44;;;;;;;25.10;13.70;;;;;;;;;;5024311;28;20042;-78
2022/05/19 08:23:13;;;;;;;22.60;13.13;;;;;;;;;;5021574;28;20033;-79
2022/05/19 08:25:39;;;;;;;24.13;12.38;;;;;;;;;;5004948;28;20124;-76
2022/05/19 08:28:06;;;;;;;26.33;12.75;;;;;;;;;;5024005;28;20041;-79
2022/05/19 08:30:34;;;;;;;24.02;11.68;;;;;;;;;;5033373;28;20478;-80
2022/05/19 08:33:00;;;;;;;29.60;11.32;;;;;;;;;;5022305;28;20060;-79
2022/05/19 08:35:26;;;;;;;25.95;11.95;;;;;;;;;;5023014;28;20049;-79
2022/05/19 08:37:55;;;;;;;24.02;12.35;;;;;;;;;;5019253;28;20065;-78
2022/05/19 08:40:21;;;;;;;28.92;12.45;;;;;;;;;;5024613;28;20045;-77
2022/05/19 08:42:51;;;;;;;27.23;11.43;;;;;;;;;;5023063;28;20034;-78
2022/05/19 08:45:30;;;;;;;21.30;11.65;;;;;;;;;;5022028;28;20048;-77
2022/05/19 08:48:07;;;;;;;22.15;11.65;;;;;;;;;;5022504;28;20128;-76
2022/05/19 08:50:39;;;;;;;27.10;11.23;;;;;;;;;;5022632;28;20037;-74
2022/05/19 08:53:06;;;;;;;23.88;11.40;;;;;;;;;;5024277;28;20135;-76
2022/05/19 08:55:33;;;;;;;26.83;11.27;;;;;;;;;;5021630;28;20033;-78
2022/05/19 08:58:18;;;;;;;24.42;11.05;;;;;;;;;;5023009;28;20041;-79
2022/05/19 09:00:54;;;;;;;25.08;12.52;;;;;;;;;;5020379;28;20049;-75
2022/05/19 09:03:25;;;;;;;23.33;12.60;;;;;;;;;;5022803;28;20129;-75
2022/05/19 09:06:14;;;;;;;17.38;11.57;;;;;;;;;;5023223;28;20041;-76
2022/05/19 09:08:55;;;;;;;19.45;11.55;;;;;;;;;;5019739;28;20505;-74
2022/05/19 09:11:23;;;;;;;18.52;11.73;;;;;;;;;;5019492;28;20077;-79
2022/05/19 09:13:55;;;;;;;20.45;13.48;;;;;;;;;;5022631;28;20049;-75
2022/05/19 09:16:24;;;;;;;25.63;14.82;;;;;;;;;;5022216;28;20057;-77
2022/05/19 09:19:10;;;;;;;24.60;16.95;;;19.80;99.90;;;;;;5028530;28;20628;-76
2022/05/19 09:21:37;;;;;;;30.10;16.05;;;;;;;;;;5023136;28;20045;-74
2022/05/19 09:24:04;;;;;;;29.48;16.35;;;;;;;;;;5023425;28;20041;-76
2022/05/19 09:26:50;;;;;;;29.63;15.95;;;;;;;;;;5021180;28;20038;-80
2022/05/19 09:29:36;;;;;;;20.17;14.45;;;;;;;;;;5019810;28;20140;-88
2022/05/19 09:32:16;;;;;;;25.38;14.52;;;;;;;;;;5021278;28;20138;-78
2022/05/19 09:34:47;;;;;;;25.23;15.50;;;;;;;;;;5019757;28;20053;-75
2022/05/19 09:37:16;;;;;;;24.02;16.15;;;;;;;;;;5019773;28;20041;-85
2022/05/19 09:39:45;;;;;;;27.63;15.10;;;;;;;;;;5019302;28;20045;-77
2022/05/19 09:42:13;;;;;;;22.13;15.52;;;;;;;;;;5018910;28;20071;-75
2022/05/19 09:44:43;;;;;;;23.73;15.85;;;;;;;;;;5022280;28;20132;-76
2022/05/19 09:47:38;;;;;;;25.90;15.98;;;;;;;;;;5018127;28;20104;-79
2022/05/19 09:50:06;;;;;;;24.63;16.23;;;;;;;;;;5017866;28;20150;-82
2022/05/19 09:52:33;;;;;;;30.27;18.50;;;;;;;;;;5021646;28;20559;-77
2022/05/19 09:55:01;;;;;;;24.20;17.55;;;;;;;;;;5023461;28;20030;-76
2022/05/19 09:57:47;;;;;;;29.13;18.90;;;;;;;;;;5004953;28;20440;-77
2022/05/19 10:00:18;;;;;;;26.95;19.80;;;;;;;;;;5025011;28;20041;-77
2022/05/19 10:02:46;;;;;;;22.77;18.17;;;;;;;;;;5035192;28;20085;-86
2022/05/19 10:05:21;;;;;;;30.67;19.63;;;;;;;;;;5033598;28;20064;-82
2022/05/19 10:07:49;;;;;;;30.02;20.58;;;;;;;;;;5037684;28;20099;-85
2022/05/19 10:10:26;;;;;;;29.58;20.00;;;;;;;;;;5039494;28;20071;-82
2022/05/19 10:12:56;;;;;;;28.67;21.25;;;;;;;;;;5017586;28;20049;-78
2022/05/19 10:15:26;;;;;;;34.47;23.33;;;;;;;;;;5022933;28;20049;-79
2022/05/19 10:17:53;;;;;;;31.42;22.60;;;;;;;;;;5025200;28;20049;-78
2022/05/19 10:20:24;;;;;;;29.58;22.83;;;21.70;99.90;;;;;;5038787;28;20488;-77
2022/05/19 10:23:03;;;;;;;31.35;23.13;;;;;;;;;;5042330;28;20051;-78
2022/05/19 10:25:29;;;;;;;30.25;22.50;;;;;;;;;;5026133;28;20113;-77
2022/05/19 10:31:05;;;;;;;34.60;25.80;;;;;;;;;;5026510;28;20132;-77
2022/05/19 10:33:37;;;;;;;34.22;25.60;;;;;;;;;;5025419;28;20113;-78
2022/05/19 10:36:27;;;;;;;33.70;25.88;;;;;;;;;;5029910;28;20041;-77
2022/05/19 10:39:02;;;;;;;23.13;19.30;;;;;;;;;;5059918;28;20059;-75
2022/05/19 10:41:34;;;;;;;34.88;26.25;;;;;;;;;;5033334;28;20041;-83
2022/05/19 10:44:06;;;;;;;33.35;26.08;;;;;;;;;;5033876;28;20590;-77
2022/05/19 10:46:58;;;;;;;36.03;26.88;;;;;;;;;;5052405;28;20403;-82
2022/05/19 10:49:35;;;;;;;27.63;23.02;;;;;;;;;;5047159;28;20053;-79
2022/05/19 10:52:12;;;;;;;23.20;19.60;;;;;;;;;;5031274;28;20045;-79
2022/05/19 10:54:38;;;;;;;32.08;24.10;;;;;;;;;;5029538;28;20055;-77
2022/05/19 10:57:04;;;;;;;35.22;26.38;;;;;;;;;;5027094;28;20041;-80
2022/05/19 10:59:30;;;;;;;33.80;27.48;;;;;;;;;;5026393;28;20077;-81
2022/05/19 11:01:59;;;;;;;36.58;28.63;;;;;;;;;;5027072;28;20045;-77
2022/05/19 11:04:28;;;;;;;31.65;28.35;;;;;;;;;;5023992;28;20495;-79
2022/05/19 11:07:14;;;;;;;31.10;27.52;;;;;;;;;;5025992;28;20042;-79
2022/05/19 11:09:53;;;;;;;34.78;28.60;;;;;;;;;;5026320;28;20106;-79
2022/05/19 11:12:38;;;;;;;38.33;26.02;;;;;;;;;;5023873;28;20083;-86
2022/05/19 11:15:21;;;;;;;37.08;28.90;;;;;;;;;;5023524;28;20655;-78
2022/05/19 11:18:04;;;;;;;32.00;26.75;;;;;;;;;;5024514;28;20480;-78
2022/05/19 11:21:00;;;;;;;37.20;28.87;;;;;;;;;;5022069;28;20095;-78
2022/05/19 11:23:31;;;;;;;31.60;27.83;;;;;;;;;;4991284;28;20106;-77
2022/05/19 11:28:58;;;;;;;29.77;26.60;;;;;;;;;;5022038;28;20559;-77
2022/05/19 11:31:32;;;;;;;28.63;23.35;;;;;;;;;;5023036;28;20050;-77
2022/05/19 11:34:01;;;;;;;23.05;20.52;;;;;;;;;;5020129;28;20068;-78
2022/05/19 11:36:38;;;;;;;23.08;18.77;;;;;;;;;;5023562;28;20125;-78
2022/05/19 11:39:10;;;;;;;24.10;19.15;;;;;;;;;;5024682;28;20053;-78
2022/05/19 11:41:37;;;;;;;19.92;17.35;;;;;;;;;;5023208;28;20838;-78
2022/05/19 11:44:14;;;;;;;16.05;14.45;;;;;;;;;;5025685;28;20042;-77
2022/05/19 11:46:47;;;;;;;21.63;15.07;;;;;;;;;;5019228;28;20503;-77
2022/05/19 11:57:40;;;;;;;19.80;15.68;;;;;;;;;;5024164;28;20875;-81
2022/05/19 12:00:07;;;;;;;22.52;15.35;;;;;;;;;;5023140;28;20121;-77
2022/05/19 12:02:47;;;;;;;25.15;15.70;;;;;;;;;;5022421;28;20473;-78
2022/05/19 12:05:14;;;;;;;18.88;15.30;;;;;;;;;;5021703;28;20570;-79
2022/05/19 12:07:43;;;;;;;15.85;14.13;;;;;;;;;;5020706;28;20073;-78
2022/05/19 12:10:11;;;;;;;19.00;15.75;;;;;;;;;;5021692;28;20136;-77
2022/05/19 12:12:40;;;;;;;17.40;15.32;;;;;;;;;;5024595;28;20450;-79
2022/05/19 12:15:18;;;;;;;18.13;15.23;;;;;;;;;;5020175;28;20052;-81
2022/05/19 12:17:46;;;;;;;17.80;14.82;;;;;;;;;;5022752;28;20038;-79
2022/05/19 12:20:42;;;;;;;22.55;15.35;;;;;;;;;;5023861;28;20567;-79
2022/05/19 12:23:43;;;;;;;19.00;17.00;;;;;;;;;;4952853;28;21205;-77
2022/05/19 12:26:19;;;;;;;20.52;18.38;;;;;;;;;;4941853;28;20416;-79
2022/05/19 12:28:46;;;;;;;20.20;18.15;;;;;;;;;;5006837;28;20417;-77
2022/05/19 12:34:09;;;;;;;24.33;19.70;;;;;;;;;;5020097;28;20057;-79
2022/05/19 12:36:38;;;;;;;21.42;19.23;;;;;;;;;;5019530;28;20537;-78
2022/05/19 12:39:26;;;;;;;21.15;19.25;;;;;;;;;;5023692;28;20385;-77
2022/05/19 12:42:00;;;;;;;23.73;19.70;;;;;;;;;;5024075;28;20045;-77
2022/05/19 12:44:40;;;;;;;22.85;18.25;;;;;;;;;;5001368;28;20046;-76
2022/05/19 12:47:12;;;;;;;20.50;16.92;;;;;;;;;;5021151;28;20195;-78
2022/05/19 12:49:39;;;;;;;20.37;18.37;;;;;;;;;;5023715;28;20041;-78
2022/05/19 12:52:13;;;;;;;21.77;19.35;;;;;;;;;;5024206;28;20049;-77
2022/05/19 12:54:39;;;;;;;;;;;;;;;;;;5017617;28;20053;-78
2022/05/19 12:57:11;;;;;;;22.15;19.95;;;;;;;;;;5021836;28;19946;-77
2022/05/19 12:59:37;;;;;;;22.08;19.77;;;;;;;;;;5025215;28;20092;-77
2022/05/19 13:02:11;;;;;;;21.98;19.67;;;;;;;;;;5005607;28;20045;-79
2022/05/19 13:04:42;;;;;;;21.13;18.98;;;;;;;;;;5021495;28;20548;-79
2022/05/19 13:07:23;;;;;;;22.42;19.75;;;;;;;;;;5018451;28;20501;-78
2022/05/19 13:09:55;;;;;;;20.85;18.75;;;;;;;;;;5008308;28;20045;-80
2022/05/19 13:12:24;;;;;;;24.55;19.45;;;;;;;;;;5037218;28;20045;-80
2022/05/19 13:15:08;;;;;;;23.52;19.17;;;;;;;;;;5014835;28;20134;-78
2022/05/19 13:17:37;;;;;;;30.50;22.98;;;;;;;;;;5017940;28;20141;-82
2022/05/19 13:20:05;;;;;;;23.67;18.50;;;;;;;;;;5047457;28;20033;-79
2022/05/19 13:22:34;;;;;;;20.75;18.52;;;;;;;;;;4998602;28;20048;-79
2022/05/19 13:25:10;;;;;;;19.95;16.67;;;;;;;;;;5031819;28;20046;-81
2022/05/19 13:30:29;;;;;;;15.20;13.60;;;;;;;;;;5021784;28;20041;-78
2022/05/19 13:33:09;;;;;;;16.17;14.48;;;;;;;;;;5020954;28;20046;-80
2022/05/19 13:35:35;;;;;;;23.35;15.68;;;;;;;;;;5037645;28;20092;-79
2022/05/19 13:38:03;;;;;;;28.73;18.42;;;;;;;;;;5023435;28;20079;-78
2022/05/19 13:40:36;;;;;;;23.42;15.98;;;;;;;;;;5029773;28;20060;-80
2022/05/19 13:43:02;;;;;;;10.85;5.32;;;;;;;;;;5024587;28;20124;-80
2022/05/19 13:45:35;;;;;;;3.67;2.80;;;;;;;;;;5023315;28;20068;-81
2022/05/19 13:48:01;;;;;;;5.80;1.60;;;;;;;;;;5023973;28;20053;-82
2022/05/19 13:50:29;;;;;;;9.07;1.63;;;;;;;;;;5016735;28;20046;-79
2022/05/19 13:53:02;;;;;;;3.90;2.00;;;;;;;;;;5025237;28;20060;-82
2022/05/19 13:55:30;;;;;;;9.43;3.95;;;;;;;;;;5026090;28;20223;-81
2022/05/19 13:57:56;;;;;;;10.30;7.63;;;;;;;;;;5005789;28;20148;-81
2022/05/19 14:00:24;;;;;;;14.85;9.38;;;;;;;;;;5023622;28;20049;-81
2022/05/19 14:02:51;;;;;;;15.20;12.27;;;;;;;;;;5023544;28;20073;-79
2022/05/19 14:05:26;;;;;;;26.60;14.98;;;;;;;;;;5024000;28;20037;-81
2022/05/19 14:07:53;;;;;;;28.98;18.77;;;;;;;;;;5020187;28;20038;-80
2022/05/19 14:10:22;;;;;;;29.05;21.70;;;;;;;;;;5023881;28;20053;-79
2022/05/19 14:12:56;;;;;;;33.72;23.60;;;;;;;;;;5024426;28;20038;-78
2022/05/19 14:15:29;;;;;;;35.05;24.45;;;;;;;;;;5026545;28;20045;-82
2022/05/19 14:18:08;;;;;;;42.03;25.67;;;;;;;;;;5026801;28;20099;-79
2022/05/19 14:20:54;;;;;;;48.42;30.63;;;18.20;99.90;;;;;;5003950;28;20505;-80
2022/05/19 14:23:27;;;;;;;45.30;33.00;;;;;;;;;;5016034;28;20053;-79
2022/05/19 14:26:04;;;;;;;64.93;37.63;;;;;;;;;;5024735;28;20037;-77
2022/05/19 14:28:38;;;;;;;54.42;38.42;;;;;;;;;;5026181;28;20052;-78
2022/05/19 14:31:12;;;;;;;65.38;42.50;;;;;;;;;;5025577;28;20115;-77
2022/05/19 14:33:40;;;;;;;105.78;55.85;;;;;;;;;;5045907;28;20053;-80
2022/05/19 14:36:10;;;;;;;122.13;59.67;;;;;;;;;;5031774;28;20049;-81
2022/05/19 14:38:36;;;;;;;191.73;72.57;;;;;;;;;;5020777;28;20123;-81
2022/05/19 14:43:52;;;;;;;60.63;39.20;;;;;;;;;;5025154;28;20393;-81
2022/05/19 14:46:23;;;;;;;96.43;49.78;;;;;;;;;;5022018;28;21999;-78
2022/05/19 14:48:50;;;;;;;102.95;52.45;;;;;;;;;;5018519;28;20096;-79
2022/05/19 14:51:29;;;;;;;80.38;44.67;;;;;;;;;;5018722;28;20040;-80
2022/05/19 14:53:59;;;;;;;86.22;46.15;;;;;;;;;;5024333;28;20482;-83
2022/05/19 14:56:29;;;;;;;76.97;46.15;;;;;;;;;;5027563;28;20109;-80
2022/05/19 14:59:00;;;;;;;87.65;49.00;;;;;;;;;;5025804;28;20087;-78